Pagrindinis puslapis
METAR-TAF:

METAR-TAF

Oro uostai :

Ocala International Airport (Jim Taylor Field)

Ocala, Florida, Jungtinės Amerikos Valstijos

platuma: 29-10N, ilguma: 082-13W, Aukštis: 27 m

Dabartinis oras

Ataskaita buvo paskelbta 14 minutes, ne 22:51 UTC
Vėjas 4 kt iš Rytų
Temperatūra 10°C
Drėgmė 93%
Slėgis 1017 hPa
Matomumas: 16.1 km
Apsiniaukę ne aukštis 1500 ft

METAR: KOCF 252251Z 09004KT 10SM OVC015 10/09 A3002 RMK AO2 RAE47 SLP167 P0000 T01000089 $

Laikas: 18:05 (23:05 UTC)


TAF: trūkstamas

Orai ataskaitas ir orų prognozės (METAR, TAF).

turimą stotys yra geltonos ir raudonos taškus žemėlapyje.

Perkelti pele per norėdami pamatyti stoties vardą.

Tada spustelėkite, norėdami matyti oro stebėjimo ir prognozės.

Norėdami pakeisti žemėlapį: spustelėkite ant žalios mygtukų su juodo kryžiaus žemyn,; žalią mygtuką su brūkšneliu, jei norite nutolinti; arba žalių rodyklių gretimoms žemėlapius.


METAR-TAF: